sensor_id;sensor_type;location;lat;lon;timestamp;P1;durP1;ratioP1;P2;durP2;ratioP2
77148;SDS011;66122;47.130;16.844;2023-10-08T00:08:26;0.80;;;0.70;;
77148;SDS011;66122;47.130;16.844;2023-10-08T00:18:29;0.93;;;0.83;;
77148;SDS011;66122;47.130;16.844;2023-10-08T00:28:31;0.80;;;0.70;;
77148;SDS011;66122;47.130;16.844;2023-10-08T00:38:34;0.70;;;0.50;;
77148;SDS011;66122;47.130;16.844;2023-10-08T00:48:37;0.80;;;0.70;;
77148;SDS011;66122;47.130;16.844;2023-10-08T00:58:41;0.80;;;0.70;;
77148;SDS011;66122;47.130;16.844;2023-10-08T01:08:46;0.70;;;0.50;;
77148;SDS011;66122;47.130;16.844;2023-10-08T01:18:55;0.80;;;0.70;;
77148;SDS011;66122;47.130;16.844;2023-10-08T01:28:59;1.03;;;0.93;;
77148;SDS011;66122;47.130;16.844;2023-10-08T01:39:06;0.82;;;0.80;;
77148;SDS011;66122;47.130;16.844;2023-10-08T01:49:09;0.80;;;0.70;;
77148;SDS011;66122;47.130;16.844;2023-10-08T01:59:19;1.17;;;1.07;;
77148;SDS011;66122;47.130;16.844;2023-10-08T02:09:22;0.80;;;0.80;;
77148;SDS011;66122;47.130;16.844;2023-10-08T02:19:29;0.75;;;0.70;;
77148;SDS011;66122;47.130;16.844;2023-10-08T02:29:33;0.70;;;0.60;;
77148;SDS011;66122;47.130;16.844;2023-10-08T02:39:36;0.60;;;0.40;;
77148;SDS011;66122;47.130;16.844;2023-10-08T02:49:42;0.73;;;0.63;;
77148;SDS011;66122;47.130;16.844;2023-10-08T02:59:45;0.80;;;0.73;;
77148;SDS011;66122;47.130;16.844;2023-10-08T03:09:49;0.70;;;0.57;;
77148;SDS011;66122;47.130;16.844;2023-10-08T03:20:20;0.70;;;0.60;;
77148;SDS011;66122;47.130;16.844;2023-10-08T03:30:42;0.77;;;0.70;;
77148;SDS011;66122;47.130;16.844;2023-10-08T03:40:54;0.60;;;0.40;;
77148;SDS011;66122;47.130;16.844;2023-10-08T03:51:11;0.63;;;0.53;;
77148;SDS011;66122;47.130;16.844;2023-10-08T04:01:15;0.70;;;0.50;;
77148;SDS011;66122;47.130;16.844;2023-10-08T04:11:21;0.50;;;0.30;;
77148;SDS011;66122;47.130;16.844;2023-10-08T04:21:40;0.60;;;0.50;;
77148;SDS011;66122;47.130;16.844;2023-10-08T04:31:45;0.73;;;0.70;;
77148;SDS011;66122;47.130;16.844;2023-10-08T04:41:48;0.70;;;0.50;;
77148;SDS011;66122;47.130;16.844;2023-10-08T04:52:04;0.83;;;0.77;;
77148;SDS011;66122;47.130;16.844;2023-10-08T05:02:16;0.70;;;0.55;;
77148;SDS011;66122;47.130;16.844;2023-10-08T05:12:26;0.70;;;0.50;;
77148;SDS011;66122;47.130;16.844;2023-10-08T05:22:49;0.63;;;0.50;;
77148;SDS011;66122;47.130;16.844;2023-10-08T05:32:58;0.63;;;0.50;;
77148;SDS011;66122;47.130;16.844;2023-10-08T05:43:36;0.60;;;0.40;;
77148;SDS011;66122;47.130;16.844;2023-10-08T05:53:42;0.60;;;0.50;;
77148;SDS011;66122;47.130;16.844;2023-10-08T06:03:51;0.70;;;0.50;;
77148;SDS011;66122;47.130;16.844;2023-10-08T06:14:05;0.80;;;0.80;;
77148;SDS011;66122;47.130;16.844;2023-10-08T06:24:30;0.60;;;0.50;;
77148;SDS011;66122;47.130;16.844;2023-10-08T06:34:35;0.80;;;0.70;;
77148;SDS011;66122;47.130;16.844;2023-10-08T06:44:37;0.70;;;0.50;;
77148;SDS011;66122;47.130;16.844;2023-10-08T06:54:48;0.70;;;0.50;;
77148;SDS011;66122;47.130;16.844;2023-10-08T07:04:51;0.70;;;0.50;;
77148;SDS011;66122;47.130;16.844;2023-10-08T07:14:54;0.70;;;0.50;;
77148;SDS011;66122;47.130;16.844;2023-10-08T07:24:56;0.80;;;0.60;;
77148;SDS011;66122;47.130;16.844;2023-10-08T07:34:59;1.20;;;1.10;;
77148;SDS011;66122;47.130;16.844;2023-10-08T07:45:22;0.90;;;0.73;;
77148;SDS011;66122;47.130;16.844;2023-10-08T07:55:24;0.80;;;0.60;;
77148;SDS011;66122;47.130;16.844;2023-10-08T08:05:27;0.80;;;0.70;;
77148;SDS011;66122;47.130;16.844;2023-10-08T08:15:29;0.83;;;0.70;;
77148;SDS011;66122;47.130;16.844;2023-10-08T08:25:38;0.90;;;0.80;;
77148;SDS011;66122;47.130;16.844;2023-10-08T08:36:00;0.90;;;0.80;;
77148;SDS011;66122;47.130;16.844;2023-10-08T08:46:03;0.87;;;0.77;;
77148;SDS011;66122;47.130;16.844;2023-10-08T08:56:09;1.17;;;1.07;;
77148;SDS011;66122;47.130;16.844;2023-10-08T09:06:12;1.45;;;1.35;;
77148;SDS011;66122;47.130;16.844;2023-10-08T09:16:15;1.20;;;1.10;;
77148;SDS011;66122;47.130;16.844;2023-10-08T09:26:22;1.00;;;0.90;;
77148;SDS011;66122;47.130;16.844;2023-10-08T09:36:27;1.20;;;1.10;;
77148;SDS011;66122;47.130;16.844;2023-10-08T09:46:37;1.47;;;1.37;;
77148;SDS011;66122;47.130;16.844;2023-10-08T09:56:42;1.10;;;1.00;;
77148;SDS011;66122;47.130;16.844;2023-10-08T10:06:46;1.30;;;1.20;;
77148;SDS011;66122;47.130;16.844;2023-10-08T10:17:07;1.30;;;1.20;;
77148;SDS011;66122;47.130;16.844;2023-10-08T10:27:12;1.40;;;1.30;;
77148;SDS011;66122;47.130;16.844;2023-10-08T10:37:19;1.47;;;1.37;;
77148;SDS011;66122;47.130;16.844;2023-10-08T10:47:22;1.30;;;1.20;;
77148;SDS011;66122;47.130;16.844;2023-10-08T10:57:29;1.57;;;1.47;;
77148;SDS011;66122;47.130;16.844;2023-10-08T11:07:37;1.40;;;1.30;;
77148;SDS011;66122;47.130;16.844;2023-10-08T11:17:44;1.38;;;1.27;;
77148;SDS011;66122;47.130;16.844;2023-10-08T11:27:52;1.00;;;0.90;;
77148;SDS011;66122;47.130;16.844;2023-10-08T11:38:03;0.97;;;0.87;;
77148;SDS011;66122;47.130;16.844;2023-10-08T11:48:06;0.85;;;0.70;;
77148;SDS011;66122;47.130;16.844;2023-10-08T11:58:15;0.80;;;0.80;;
77148;SDS011;66122;47.130;16.844;2023-10-08T12:08:20;0.90;;;0.80;;
77148;SDS011;66122;47.130;16.844;2023-10-08T12:18:25;0.80;;;0.70;;
77148;SDS011;66122;47.130;16.844;2023-10-08T12:28:29;0.80;;;0.70;;
77148;SDS011;66122;47.130;16.844;2023-10-08T12:38:32;0.87;;;0.77;;
77148;SDS011;66122;47.130;16.844;2023-10-08T12:48:35;0.80;;;0.70;;
77148;SDS011;66122;47.130;16.844;2023-10-08T12:58:37;0.80;;;0.63;;
77148;SDS011;66122;47.130;16.844;2023-10-08T13:08:51;1.30;;;1.20;;
77148;SDS011;66122;47.130;16.844;2023-10-08T13:18:55;0.70;;;0.60;;
77148;SDS011;66122;47.130;16.844;2023-10-08T13:29:00;0.80;;;0.73;;
77148;SDS011;66122;47.130;16.844;2023-10-08T13:39:06;0.80;;;0.80;;
77148;SDS011;66122;47.130;16.844;2023-10-08T13:49:12;0.50;;;0.30;;
77148;SDS011;66122;47.130;16.844;2023-10-08T13:59:18;0.60;;;0.40;;
77148;SDS011;66122;47.130;16.844;2023-10-08T14:09:21;0.50;;;0.30;;
77148;SDS011;66122;47.130;16.844;2023-10-08T14:19:37;0.60;;;0.30;;
77148;SDS011;66122;47.130;16.844;2023-10-08T14:29:49;0.67;;;0.53;;
77148;SDS011;66122;47.130;16.844;2023-10-08T14:39:54;0.70;;;0.60;;
77148;SDS011;66122;47.130;16.844;2023-10-08T14:50:15;0.50;;;0.30;;
77148;SDS011;66122;47.130;16.844;2023-10-08T15:00:21;0.73;;;0.73;;
77148;SDS011;66122;47.130;16.844;2023-10-08T15:10:29;0.60;;;0.45;;
77148;SDS011;66122;47.130;16.844;2023-10-08T15:20:32;0.50;;;0.30;;
77148;SDS011;66122;47.130;16.844;2023-10-08T15:30:36;0.50;;;0.30;;
77148;SDS011;66122;47.130;16.844;2023-10-08T15:40:39;0.50;;;0.30;;
77148;SDS011;66122;47.130;16.844;2023-10-08T15:50:44;0.50;;;0.30;;
77148;SDS011;66122;47.130;16.844;2023-10-08T16:00:47;0.50;;;0.30;;
77148;SDS011;66122;47.130;16.844;2023-10-08T16:10:49;0.60;;;0.50;;
77148;SDS011;66122;47.130;16.844;2023-10-08T16:20:52;0.50;;;0.30;;
77148;SDS011;66122;47.130;16.844;2023-10-08T16:30:56;0.50;;;0.30;;
77148;SDS011;66122;47.130;16.844;2023-10-08T16:41:00;0.60;;;0.43;;
77148;SDS011;66122;47.130;16.844;2023-10-08T16:51:03;0.60;;;0.50;;
77148;SDS011;66122;47.130;16.844;2023-10-08T17:01:06;0.63;;;0.57;;
77148;SDS011;66122;47.130;16.844;2023-10-08T17:11:12;0.50;;;0.30;;
77148;SDS011;66122;47.130;16.844;2023-10-08T17:21:17;0.50;;;0.20;;
77148;SDS011;66122;47.130;16.844;2023-10-08T17:31:22;0.43;;;0.22;;
77148;SDS011;66122;47.130;16.844;2023-10-08T17:41:26;0.50;;;0.37;;
77148;SDS011;66122;47.130;16.844;2023-10-08T17:51:29;0.70;;;0.67;;
77148;SDS011;66122;47.130;16.844;2023-10-08T18:01:35;0.60;;;0.47;;
77148;SDS011;66122;47.130;16.844;2023-10-08T18:11:42;0.40;;;0.23;;
77148;SDS011;66122;47.130;16.844;2023-10-08T18:21:45;0.67;;;0.53;;
77148;SDS011;66122;47.130;16.844;2023-10-08T18:31:49;0.60;;;0.50;;
77148;SDS011;66122;47.130;16.844;2023-10-08T18:41:52;0.80;;;0.80;;
77148;SDS011;66122;47.130;16.844;2023-10-08T18:51:56;0.50;;;0.30;;
77148;SDS011;66122;47.130;16.844;2023-10-08T19:01:59;0.70;;;0.60;;
77148;SDS011;66122;47.130;16.844;2023-10-08T19:12:02;0.60;;;0.55;;
77148;SDS011;66122;47.130;16.844;2023-10-08T19:22:08;0.60;;;0.43;;
77148;SDS011;66122;47.130;16.844;2023-10-08T19:32:12;0.60;;;0.43;;
77148;SDS011;66122;47.130;16.844;2023-10-08T19:42:15;0.57;;;0.47;;
77148;SDS011;66122;47.130;16.844;2023-10-08T19:52:18;0.40;;;0.20;;
77148;SDS011;66122;47.130;16.844;2023-10-08T20:02:21;0.67;;;0.60;;
77148;SDS011;66122;47.130;16.844;2023-10-08T20:12:24;0.50;;;0.30;;
77148;SDS011;66122;47.130;16.844;2023-10-08T20:22:27;0.50;;;0.30;;
77148;SDS011;66122;47.130;16.844;2023-10-08T20:32:30;0.50;;;0.33;;
77148;SDS011;66122;47.130;16.844;2023-10-08T20:42:34;0.50;;;0.37;;
77148;SDS011;66122;47.130;16.844;2023-10-08T20:52:37;0.60;;;0.40;;
77148;SDS011;66122;47.130;16.844;2023-10-08T21:02:41;0.70;;;0.67;;
77148;SDS011;66122;47.130;16.844;2023-10-08T21:12:46;0.50;;;0.30;;
77148;SDS011;66122;47.130;16.844;2023-10-08T21:22:50;0.50;;;0.35;;
77148;SDS011;66122;47.130;16.844;2023-10-08T21:32:54;0.60;;;0.50;;
77148;SDS011;66122;47.130;16.844;2023-10-08T21:42:58;0.60;;;0.40;;
77148;SDS011;66122;47.130;16.844;2023-10-08T21:53:02;0.52;;;0.40;;
77148;SDS011;66122;47.130;16.844;2023-10-08T22:03:06;0.60;;;0.40;;
77148;SDS011;66122;47.130;16.844;2023-10-08T22:13:12;0.60;;;0.40;;
77148;SDS011;66122;47.130;16.844;2023-10-08T22:23:15;0.40;;;0.20;;
77148;SDS011;66122;47.130;16.844;2023-10-08T22:33:18;0.40;;;0.20;;
77148;SDS011;66122;47.130;16.844;2023-10-08T22:43:27;0.67;;;0.60;;
77148;SDS011;66122;47.130;16.844;2023-10-08T22:53:39;0.50;;;0.40;;
77148;SDS011;66122;47.130;16.844;2023-10-08T23:03:44;0.60;;;0.47;;
77148;SDS011;66122;47.130;16.844;2023-10-08T23:13:49;0.50;;;0.30;;
77148;SDS011;66122;47.130;16.844;2023-10-08T23:23:53;0.70;;;0.60;;
77148;SDS011;66122;47.130;16.844;2023-10-08T23:33:56;0.45;;;0.30;;
77148;SDS011;66122;47.130;16.844;2023-10-08T23:44:01;0.50;;;0.30;;
77148;SDS011;66122;47.130;16.844;2023-10-08T23:54:05;0.50;;;0.30;;
